Culdrose, United Kingdom
Current Conditions -  °F | °C
As of 11:50 PM on Monday 20 Oct 2014 (Local Time) from EGDR Reporting Station
Light Rain Light Rain  
Wind Chill: 13°   Ceiling: 2400
Heat Index: 13°   Visibility: 2.8mi
Dew Point: 11°   Wind: 23mph
Humidity: 88%   Direction: 230°SW
Pressure: 29.88"   Gusts: 40mph
Location:  50.08°N, 5.25°W
Report Text: EGDR 202250Z 23020G35KT 4500 -RADZ FEW008 SCT014 BKN024 13/11 Q1012 GRN TEMPO 4000 -RADZ SCT006 BKN014 YLO1
Loading
Personal Weather Stations






























Interactive Weather Map
Tropical Storm Tracking
New forecast layout! Learn more

10-Day Weather Forecast

Advertisements
Track Severe Weather on mobile